Highest pressure

Not for real navigation. The accuracy of this data is not assured See disclaimer for more information



ICAO NAME COUNTRY WIND Kt GUST Kt VIS m TEMP/DEW C BARO METAR
SLLP La Paz / Alto Bolivia 2 0 9999 5/3 30.62 SLLP 220900Z VRB02KT 9999 SCT015 BKN200 05/03 Q1037
SPZO Cuzco Peru 0 0 9999 9/7 30.47 SPZO 220900Z 00000KT 9999 -DZ FEW033 SCT040 BKN080 09/07 Q1032 RMK BIRD HAZARD RWY 28 PP002
CYAT 3 0 9999 -9/-9 30.46 CYAT 220900Z AUTO 07003KT 9SM CAVOK M09/M09 A3046 RMK SLP315
CYMO Moosonee, Ont. Canada 3 0 9999 -6/-8 30.46 CYMO 220900Z AUTO 07003KT 9SM CAVOK M06/M08 A3046 RMK SLP317
CYGW Kuujjuarapik, Que. Canada 4 0 14400 -13/-15 30.44 CYGW 220900Z AUTO 30004KT 9SM OVC018 M13/M15 A3044 RMK SLP312

Show more